createdAt,value
2022-08-16T00:05:00.326Z,49.94
2022-08-16T00:10:03.252Z,50.41
2022-08-16T00:15:12.005Z,50.67
2022-08-16T00:20:21.398Z,50.60
2022-08-16T00:26:33.290Z,50.76
2022-08-16T00:30:51.924Z,51.02
2022-08-16T00:35:56.285Z,50.95
2022-08-16T00:41:00.436Z,51.28
2022-08-16T00:46:22.231Z,51.06
2022-08-16T00:51:34.399Z,51.23
2022-08-16T00:56:58.627Z,51.37
2022-08-16T01:02:30.373Z,52.07
2022-08-16T01:07:50.760Z,51.94
2022-08-16T01:12:53.687Z,51.85
2022-08-16T01:17:58.493Z,51.95
2022-08-16T01:23:08.686Z,52.61
2022-08-16T01:28:17.000Z,52.74
2022-08-16T01:33:23.522Z,52.64
2022-08-16T01:38:30.694Z,52.73
2022-08-16T01:43:38.191Z,52.88
2022-08-16T01:48:42.709Z,53.27
2022-08-16T01:53:55.500Z,53.17
2022-08-16T01:59:15.930Z,53.26
2022-08-16T02:24:45.820Z,53.56
2022-08-16T02:29:48.972Z,53.58
2022-08-16T02:35:09.200Z,53.71
2022-08-16T02:40:16.758Z,53.80
2022-08-16T02:45:24.755Z,53.91
2022-08-16T02:50:55.529Z,54.08
2022-08-16T02:55:52.374Z,54.17
2022-08-16T03:00:57.427Z,54.43
2022-08-16T03:06:01.865Z,54.48
2022-08-16T03:11:06.523Z,54.70
2022-08-16T03:16:37.635Z,54.91
2022-08-16T03:21:46.466Z,54.97
2022-08-16T03:26:57.769Z,54.91
2022-08-16T03:32:01.838Z,55.05
2022-08-16T03:37:05.400Z,55.06
2022-08-16T03:42:11.747Z,54.93
2022-08-16T03:47:23.712Z,55.36
2022-08-16T03:52:31.350Z,55.28
2022-08-16T03:57:37.516Z,55.17
2022-08-16T04:02:45.886Z,55.57
2022-08-16T04:07:53.025Z,55.55
2022-08-16T04:13:20.459Z,55.84
2022-08-16T04:18:21.158Z,55.64
2022-08-16T04:23:25.789Z,55.74
2022-08-16T04:28:56.703Z,55.88
2022-08-16T04:33:59.207Z,55.88
2022-08-16T04:39:02.007Z,56.27
2022-08-16T04:44:32.299Z,56.13
2022-08-16T04:49:43.619Z,56.00
2022-08-16T04:54:47.392Z,56.36
2022-08-16T04:59:51.676Z,56.48
2022-08-16T05:04:57.062Z,56.39
2022-08-16T05:10:00.214Z,56.46
2022-08-16T05:15:06.301Z,56.25
2022-08-16T05:20:38.905Z,56.06
2022-08-16T05:25:41.382Z,55.45
2022-08-16T05:30:52.869Z,55.19
2022-08-16T05:36:03.941Z,54.98
2022-08-16T05:41:09.326Z,54.44
2022-08-16T05:46:29.798Z,54.38
2022-08-16T05:51:42.709Z,54.14
2022-08-16T05:56:50.452Z,54.19
2022-08-16T06:01:55.654Z,53.62
2022-08-16T06:07:08.768Z,53.51
2022-08-16T06:12:26.961Z,54.10
2022-08-16T06:17:42.972Z,53.27
2022-08-16T06:22:58.595Z,53.36
2022-08-16T06:28:16.800Z,53.76
2022-08-16T06:33:22.865Z,52.51
2022-08-16T06:38:33.260Z,52.25
2022-08-16T06:43:39.530Z,51.19
2022-08-16T06:48:51.583Z,50.05
2022-08-16T06:53:54.862Z,49.63
2022-08-16T06:58:57.949Z,50.03
2022-08-16T07:04:10.468Z,49.38
2022-08-16T07:09:15.907Z,50.26
2022-08-16T07:14:24.584Z,50.01
2022-08-16T07:20:01.568Z,49.47
2022-08-16T07:24:56.422Z,49.44
2022-08-16T07:29:59.862Z,49.33
2022-08-16T07:35:04.381Z,49.28
2022-08-16T07:40:11.563Z,49.35
2022-08-16T07:45:19.089Z,49.26
2022-08-16T07:50:56.352Z,49.24
2022-08-16T07:55:51.167Z,49.36
2022-08-16T08:01:05.518Z,49.03
2022-08-16T08:06:16.182Z,49.20
2022-08-16T08:11:19.446Z,49.02
2022-08-16T08:16:30.554Z,49.30
2022-08-16T08:21:58.534Z,49.22
2022-08-16T08:27:08.769Z,49.81
2022-08-16T08:32:57.346Z,49.26
2022-08-16T08:37:54.722Z,48.94
2022-08-16T08:43:11.500Z,48.42
2022-08-16T08:48:34.825Z,48.42
2022-08-16T08:53:47.298Z,48.23
2022-08-16T08:59:06.061Z,48.44
2022-08-16T09:04:17.480Z,48.32
2022-08-16T09:09:23.867Z,48.15
2022-08-16T09:14:32.529Z,48.16
2022-08-16T09:19:40.772Z,48.39
2022-08-16T09:24:52.809Z,48.02
2022-08-16T09:30:00.295Z,47.99
2022-08-16T09:35:06.410Z,47.57
2022-08-16T09:40:31.759Z,47.92
2022-08-16T09:45:39.082Z,47.92
2022-08-16T09:50:43.641Z,48.10
2022-08-16T09:55:50.694Z,48.10
2022-08-16T10:00:54.188Z,47.75
2022-08-16T10:05:59.616Z,47.61
2022-08-16T10:11:24.757Z,47.36
2022-08-16T10:16:28.115Z,47.15
2022-08-16T10:21:32.345Z,46.94
2022-08-16T10:27:17.813Z,47.14
2022-08-16T10:32:00.507Z,47.31
2022-08-16T10:37:06.467Z,47.53
2022-08-16T10:42:13.406Z,47.63
2022-08-16T10:47:16.582Z,47.44
2022-08-16T10:52:20.061Z,47.44
2022-08-16T10:57:24.536Z,47.25
2022-08-16T11:02:58.099Z,46.75
2022-08-16T11:07:53.524Z,46.54
2022-08-16T11:13:21.177Z,46.57
2022-08-16T11:19:03.237Z,46.45
2022-08-16T11:23:58.303Z,46.48
2022-08-16T11:29:18.552Z,45.93
2022-08-16T11:34:21.714Z,45.14
2022-08-16T11:39:24.610Z,44.53
2022-08-16T11:44:52.996Z,45.31
2022-08-16T11:49:52.364Z,44.90
2022-08-16T11:54:57.026Z,45.09
2022-08-16T12:00:10.350Z,44.37
2022-08-16T12:05:33.315Z,44.45
2022-08-16T12:10:38.573Z,44.51
2022-08-16T12:15:43.636Z,43.97
2022-08-16T12:20:50.365Z,43.66
2022-08-16T12:25:58.253Z,43.96
2022-08-16T12:31:04.436Z,43.63
2022-08-16T12:36:09.897Z,43.82
2022-08-16T12:41:24.566Z,44.18
2022-08-16T12:46:30.923Z,43.74
2022-08-16T12:51:59.613Z,43.38
2022-08-16T12:57:01.691Z,43.79
2022-08-16T13:02:06.649Z,42.93
2022-08-16T13:07:15.673Z,42.76
2022-08-16T13:12:23.364Z,43.18
2022-08-16T13:17:30.019Z,43.27
2022-08-16T13:22:32.970Z,43.34
2022-08-16T13:28:02.115Z,42.84
2022-08-16T13:32:59.866Z,42.99
2022-08-16T13:38:03.285Z,42.39
2022-08-16T13:43:05.987Z,42.36
2022-08-16T13:48:24.497Z,42.56
2022-08-16T13:53:28.300Z,42.56
2022-08-16T13:58:37.433Z,41.29
2022-08-16T14:03:55.824Z,41.63
2022-08-16T14:08:59.266Z,41.66
2022-08-16T14:14:11.207Z,41.57
2022-08-16T14:19:18.375Z,41.61
2022-08-16T14:24:30.282Z,40.75
2022-08-16T14:29:35.092Z,39.77
2022-08-16T14:34:42.709Z,40.70
2022-08-16T14:39:45.743Z,41.44
2022-08-16T14:44:49.466Z,41.57
2022-08-16T14:49:54.057Z,41.77
2022-08-16T14:54:57.248Z,41.77
2022-08-16T15:00:05.820Z,41.60
2022-08-16T15:05:12.780Z,41.63
2022-08-16T15:10:23.906Z,40.90
2022-08-16T15:15:29.411Z,40.54
2022-08-16T15:20:35.702Z,41.23
2022-08-16T15:25:42.532Z,41.00
2022-08-16T15:30:57.646Z,41.16
2022-08-16T15:36:05.549Z,40.85
2022-08-16T15:41:13.205Z,40.79
2022-08-16T15:46:54.574Z,41.32
2022-08-16T15:51:49.142Z,41.18
2022-08-16T15:56:54.934Z,41.38
2022-08-16T16:01:58.295Z,41.20
2022-08-16T16:07:03.652Z,41.04
2022-08-16T16:12:34.050Z,41.24
2022-08-16T16:17:30.768Z,41.27
2022-08-16T16:22:36.030Z,41.20
2022-08-16T16:27:39.916Z,41.32
2022-08-16T16:32:42.780Z,41.43
2022-08-16T16:37:46.969Z,41.31
2022-08-16T16:42:52.480Z,41.28
2022-08-16T16:47:55.535Z,41.16
2022-08-16T16:53:17.177Z,41.20
2022-08-16T16:58:38.812Z,41.20
2022-08-16T17:03:43.270Z,41.08
2022-08-16T17:08:57.783Z,41.39
2022-08-16T17:14:00.706Z,41.30
2022-08-16T17:19:17.605Z,41.26
2022-08-16T17:24:33.143Z,41.32
2022-08-16T17:29:46.494Z,41.21
2022-08-16T17:34:50.880Z,41.21
2022-08-16T17:40:00.170Z,40.74
2022-08-16T17:45:11.308Z,41.11
2022-08-16T17:50:14.085Z,41.39
2022-08-16T17:55:23.295Z,41.29
2022-08-16T18:00:27.769Z,40.79
2022-08-16T18:05:31.267Z,40.05
2022-08-16T18:10:36.401Z,40.04
2022-08-16T18:15:40.778Z,40.33
2022-08-16T18:21:01.229Z,40.15
2022-08-16T18:26:07.140Z,40.45
2022-08-16T18:31:09.971Z,40.15
2022-08-16T18:36:20.777Z,40.44
2022-08-16T18:41:27.324Z,40.76
2022-08-16T18:46:30.071Z,40.68
2022-08-16T18:51:32.985Z,40.90
2022-08-16T18:56:54.249Z,40.92
2022-08-16T19:02:05.103Z,41.12
2022-08-16T19:07:08.331Z,41.32
2022-08-16T19:12:12.415Z,41.47
2022-08-16T19:17:18.871Z,41.70
2022-08-16T19:22:45.360Z,41.91
2022-08-16T19:27:50.769Z,42.03
2022-08-16T19:32:54.995Z,42.48
2022-08-16T19:37:57.823Z,42.60
2022-08-16T19:43:01.969Z,42.60
2022-08-16T19:48:05.374Z,43.08
2022-08-16T19:53:13.134Z,43.21
2022-08-16T19:58:23.383Z,43.93
2022-08-16T20:03:26.130Z,44.00
2022-08-16T20:08:28.819Z,44.28
2022-08-16T20:13:34.009Z,44.06
2022-08-16T20:18:36.669Z,43.88
2022-08-16T20:23:39.406Z,44.13
2022-08-16T20:28:54.095Z,43.93
2022-08-16T20:33:57.716Z,43.92
2022-08-16T20:39:03.168Z,43.98
2022-08-16T20:44:07.341Z,43.79
2022-08-16T20:49:12.753Z,44.12
2022-08-16T20:54:15.827Z,44.26
2022-08-16T20:59:19.970Z,44.14
2022-08-16T21:04:25.240Z,44.18
2022-08-16T21:09:31.329Z,43.91
2022-08-16T21:14:35.678Z,44.19
2022-08-16T21:19:39.027Z,44.37
2022-08-16T21:24:41.879Z,44.07
2022-08-16T21:29:46.934Z,44.48
2022-08-16T21:34:49.724Z,44.41
2022-08-16T21:39:52.531Z,44.75
2022-08-16T21:44:56.767Z,44.55
2022-08-16T21:49:59.566Z,44.80
2022-08-16T21:55:02.356Z,44.16
2022-08-16T22:00:13.303Z,44.45
2022-08-16T22:05:16.267Z,44.11
2022-08-16T22:11:05.677Z,44.32
2022-08-16T22:15:44.822Z,43.90
2022-08-16T22:20:48.059Z,44.26
2022-08-16T22:25:52.145Z,44.01
2022-08-16T22:30:56.821Z,43.63
2022-08-16T22:36:02.039Z,43.84
2022-08-16T22:41:05.648Z,43.92
2022-08-16T22:46:09.909Z,43.91
2022-08-16T22:51:12.773Z,44.54
2022-08-16T22:56:15.933Z,44.09
2022-08-16T23:01:22.137Z,44.31
2022-08-16T23:06:25.291Z,44.69
2022-08-16T23:11:28.027Z,44.49
2022-08-16T23:16:34.724Z,44.47
2022-08-16T23:21:39.388Z,44.87
2022-08-16T23:26:46.317Z,44.46
2022-08-16T23:31:53.314Z,44.71
2022-08-16T23:36:56.780Z,44.82
2022-08-16T23:41:59.627Z,45.53
2022-08-16T23:47:05.211Z,46.20
2022-08-16T23:52:08.573Z,46.52
2022-08-16T23:57:11.271Z,46.63
